Time;durP1;ratioP1;P1;durP2;ratioP2;P2;SDS_P1;SDS_P2;PMS_P1;PMS_P2;Temp;Humidity;BMP_temperature;BMP_pressure;BME280_temperature;BME280_humidity;BME280_pressure;Samples;Min_cycle;Max_cycle;Signal;HPM_P1;HPM_P2
2023/12/21 00:02:05;;;;;;;29.35;15.77;;;;;;;7.50;100.00;100695.00;5082178;28;20020;-77
2023/12/21 00:04:32;;;;;;;27.73;15.30;;;;;;;7.49;100.00;100701.09;5084490;28;20451;-77
2023/12/21 00:06:57;;;;;;;30.88;15.73;;;;;;;7.52;100.00;100695.88;5079939;28;20384;-76
2023/12/21 00:09:22;;;;;;;28.35;14.27;;;;;;;7.57;100.00;100678.44;5066208;28;20036;-77
2023/12/21 00:11:48;;;;;;;29.00;15.02;;;;;;;7.58;100.00;100672.28;5081962;28;20035;-76
2023/12/21 00:14:13;;;;;;;31.17;14.05;;;;;;;7.56;100.00;100666.13;5083002;28;20028;-72
2023/12/21 00:16:38;;;;;;;26.92;13.68;;;;;;;7.57;100.00;100665.28;5083530;28;20115;-74
2023/12/21 00:19:04;;;;;;;28.92;14.15;;;;;;;7.60;100.00;100657.44;5081399;28;20020;-73
2023/12/21 00:21:29;;;;;;;28.25;14.77;;;;;;;7.57;100.00;100662.66;5084841;28;20116;-71
2023/12/21 00:23:55;;;;;;;29.38;14.75;;;;;;;7.56;100.00;100654.72;5084435;28;20103;-70
2023/12/21 00:26:20;;;;;;;28.63;15.63;;;;;;;7.57;100.00;100649.50;5081675;28;20035;-68
2023/12/21 00:28:45;;;;;;;29.02;15.00;;;;;;;7.55;100.00;100643.31;5082644;28;20386;-69
2023/12/21 00:31:11;;;;;;;29.45;15.27;;;;;;;7.55;100.00;100645.06;5083051;28;20082;-68
2023/12/21 00:33:37;;;;;;;30.38;15.25;;;;;;;7.55;100.00;100632.78;5081323;28;20387;-68
2023/12/21 00:36:03;;;;;;;29.83;14.77;;;;;;;7.55;100.00;100629.28;5084211;28;20020;-68
2023/12/21 00:38:28;;;;;;;29.08;15.00;;;;;;;7.52;100.00;100630.13;5080678;28;20044;-68
2023/12/21 00:40:53;;;;;;;27.92;14.43;;;;;;;7.49;100.00;100627.47;5083967;28;20021;-69
2023/12/21 00:43:19;;;;;;;29.65;14.57;;;;;;;7.51;100.00;100625.72;5063831;28;20030;-70
2023/12/21 00:45:44;;;;;;;29.10;15.05;;;;;;;7.48;100.00;100616.06;5082393;28;20082;-69
2023/12/21 00:48:09;;;;;;;30.42;15.65;;;;;;;7.49;100.00;100601.16;5082911;28;20039;-70
2023/12/21 00:50:35;;;;;;;30.40;15.95;;;;;;;7.49;100.00;100593.25;5081237;28;20066;-70
2023/12/21 00:53:00;;;;;;;31.30;16.15;;;;;;;7.48;100.00;100596.75;5083987;28;20113;-69
2023/12/21 00:55:26;;;;;;;29.33;16.20;;;;;;;7.48;100.00;100581.88;5062587;28;20025;-68
2023/12/21 00:57:51;;;;;;;32.33;16.10;;;;;;;7.47;100.00;100587.09;5083267;28;20536;-69
2023/12/21 01:00:17;;;;;;;32.72;17.33;;;;;;;7.48;100.00;100583.59;5081810;28;20024;-69
2023/12/21 01:02:42;;;;;;;31.63;17.27;;;;;;;7.48;100.00;100586.22;5081895;28;20037;-68
2023/12/21 01:05:07;;;;;;;32.20;17.13;;;;;;;7.48;100.00;100567.81;5083245;28;20035;-68
2023/12/21 01:07:33;;;;;;;32.65;17.40;;;;;;;7.48;100.00;100562.56;5080369;28;20049;-69
2023/12/21 01:09:58;;;;;;;33.15;17.48;;;;;;;7.47;100.00;100566.03;5084295;28;20085;-68
2023/12/21 01:12:24;;;;;;;32.13;17.80;;;;;;;7.46;100.00;100544.13;5080635;28;20512;-70
2023/12/21 01:14:50;;;;;;;32.28;17.08;;;;;;;7.46;100.00;100553.78;5064711;28;20452;-69
2023/12/21 01:17:15;;;;;;;31.50;16.67;;;;;;;7.46;100.00;100549.38;5082344;28;20024;-69
2023/12/21 01:19:41;;;;;;;31.55;17.10;;;;;;;7.50;100.00;100529.28;5085240;28;20028;-68
2023/12/21 01:22:06;;;;;;;31.42;16.70;;;;;;;7.47;100.00;100539.75;5086943;28;20039;-68
2023/12/21 01:24:31;;;;;;;33.22;17.73;;;;;;;7.47;100.00;100556.44;5066200;28;20082;-68
2023/12/21 01:26:57;;;;;;;34.15;16.35;;;;;;;7.48;100.00;100541.50;5087368;28;20386;-68
2023/12/21 01:29:22;;;;;;;32.53;16.27;;;;;;;7.48;100.00;100546.78;5084472;28;20044;-70
2023/12/21 01:31:47;;;;;;;31.02;15.52;;;;;;;7.48;100.00;100538.88;5067980;28;20107;-69
2023/12/21 01:34:13;;;;;;;30.30;15.20;;;;;;;7.51;100.00;100536.28;5085746;28;20055;-68
2023/12/21 01:36:39;;;;;;;30.17;15.15;;;;;;;7.52;100.00;100538.06;5084648;28;20028;-69
2023/12/21 01:39:06;;;;;;;29.70;15.70;;;;;;;7.53;100.00;100502.09;5087149;28;20028;-68
2023/12/21 01:41:32;;;;;;;30.98;16.05;;;;;;;7.49;100.00;100522.25;5083575;28;20373;-68
2023/12/21 01:43:58;;;;;;;31.10;17.05;;;;;;;7.51;100.00;100528.41;5065646;28;20032;-68
2023/12/21 01:46:24;;;;;;;32.80;16.83;;;;;;;7.53;100.00;100510.00;5086992;28;20050;-68
2023/12/21 01:48:50;;;;;;;32.70;17.27;;;;;;;7.52;100.00;100516.16;5084889;28;20032;-69
2023/12/21 01:51:15;;;;;;;35.25;18.70;;;;;;;7.53;100.00;100516.16;5085270;28;20028;-70
2023/12/21 01:53:41;;;;;;;32.50;17.73;;;;;;;7.52;100.00;100500.38;5085844;28;20038;-69
2023/12/21 01:56:07;;;;;;;33.53;18.75;;;;;;;7.52;100.00;100490.72;5066035;28;20032;-68
2023/12/21 01:58:32;;;;;;;34.50;18.70;;;;;;;7.50;100.00;100503.84;5086957;28;20028;-69
2023/12/21 02:00:58;;;;;;;33.88;18.35;;;;;;;7.49;100.00;100499.44;5068959;28;20043;-69
2023/12/21 02:03:26;;;;;;;36.15;19.88;;;;;;;7.48;100.00;100494.16;5083727;28;20030;-69
2023/12/21 02:05:51;;;;;;;36.30;20.95;;;;;;;7.48;100.00;100500.34;5086306;28;20111;-69
2023/12/21 02:08:16;;;;;;;36.95;20.70;;;;;;;7.47;100.00;100498.56;5084634;28;20044;-70
2023/12/21 02:10:42;;;;;;;36.85;21.40;;;;;;;7.50;100.00;100513.50;5084364;28;20029;-70
2023/12/21 02:13:07;;;;;;;35.67;21.27;;;;;;;7.48;100.00;100508.22;5086007;28;20028;-70
2023/12/21 02:15:32;;;;;;;34.78;20.40;;;;;;;7.49;100.00;100507.34;5083073;28;20360;-68
2023/12/21 02:18:02;;;;;;;35.45;20.70;;;;;;;7.49;100.00;100506.47;5083305;28;20025;-73
2023/12/21 02:20:27;;;;;;;37.13;20.83;;;;;;;7.49;100.00;100493.31;5086677;28;20475;-73
2023/12/21 02:22:56;;;;;;;36.80;20.40;;;;;;;7.49;100.00;100496.81;5083580;28;20085;-72
2023/12/21 02:25:22;;;;;;;37.40;19.60;;;;;;;7.49;100.00;100490.69;5085484;28;20033;-71
2023/12/21 02:27:49;;;;;;;34.83;18.77;;;;;;;7.48;100.00;100487.19;5084591;28;20111;-72
2023/12/21 02:30:14;;;;;;;32.60;17.38;;;;;;;7.52;100.00;100474.94;5083604;28;20029;-74
2023/12/21 02:32:40;;;;;;;34.25;17.48;;;;;;;7.52;100.00;100472.31;5086307;28;20033;-70
2023/12/21 02:35:05;;;;;;;37.45;18.17;;;;;;;7.50;100.00;100450.38;5086139;28;20028;-71
2023/12/21 02:37:31;;;;;;;35.30;17.50;;;;;;;7.51;100.00;100452.13;5064893;28;20135;-77
2023/12/21 02:39:56;;;;;;;33.30;17.58;;;;;;;7.50;100.00;100445.13;5086027;28;20036;-77
2023/12/21 02:42:21;;;;;;;33.50;17.30;;;;;;;7.48;100.00;100434.56;5083840;28;20462;-77
2023/12/21 02:44:47;;;;;;;33.55;16.35;;;;;;;7.51;100.00;100438.97;5084714;28;20039;-77
2023/12/21 02:47:12;;;;;;;33.70;16.27;;;;;;;7.54;100.00;100443.38;5084632;28;20530;-77
2023/12/21 02:49:37;;;;;;;31.48;15.68;;;;;;;7.53;100.00;100442.50;5083190;28;20348;-76
2023/12/21 02:52:03;;;;;;;33.35;16.27;;;;;;;7.51;100.00;100433.69;5085772;28;20032;-76
2023/12/21 02:54:29;;;;;;;35.10;16.50;;;;;;;7.53;100.00;100439.88;5082492;28;20056;-77
2023/12/21 02:56:55;;;;;;;33.83;16.42;;;;;;;7.53;100.00;100439.88;5067106;28;20060;-77
2023/12/21 02:59:21;;;;;;;36.53;17.05;;;;;;;7.53;100.00;100429.34;5083150;28;20028;-77
2023/12/21 03:01:46;;;;;;;34.95;15.35;;;;;;;7.55;100.00;100421.47;5084254;28;20048;-77
2023/12/21 03:04:12;;;;;;;31.95;15.13;;;;;;;7.57;100.00;100425.00;5084389;28;20031;-77
2023/12/21 03:06:37;;;;;;;34.03;15.25;;;;;;;7.56;100.00;100420.59;5082446;28;20052;-70
2023/12/21 03:09:03;;;;;;;34.97;15.15;;;;;;;7.56;100.00;100424.13;5085656;28;20027;-71
2023/12/21 03:11:28;;;;;;;31.23;14.20;;;;;;;7.55;100.00;100405.69;5082036;28;20127;-74
2023/12/21 03:13:54;;;;;;;33.90;14.85;;;;;;;7.55;100.00;100409.19;5066590;28;20032;-69
2023/12/21 03:16:19;;;;;;;34.20;15.10;;;;;;;7.55;100.00;100397.81;5065242;28;20086;-68
2023/12/21 03:18:46;;;;;;;32.22;13.75;;;;;;;7.56;100.00;100360.09;5083284;28;20067;-68
2023/12/21 03:21:11;;;;;;;32.97;13.70;;;;;;;7.54;100.00;100346.94;5084355;28;20097;-69
2023/12/21 03:23:39;;;;;;;31.25;13.85;;;;;;;7.53;100.00;100339.94;5082289;28;20147;-69
2023/12/21 03:26:04;;;;;;;31.55;13.95;;;;;;;7.56;100.00;100323.25;5085035;28;20034;-70
2023/12/21 03:28:30;;;;;;;31.33;14.88;;;;;;;7.56;100.00;100331.16;5081684;28;20119;-68
2023/12/21 03:30:55;;;;;;;34.85;14.10;;;;;;;7.58;100.00;100313.66;5084667;28;20032;-69
2023/12/21 03:33:20;;;;;;;34.90;14.35;;;;;;;7.58;100.00;100325.03;5064648;28;20436;-70
2023/12/21 03:35:46;;;;;;;32.20;13.35;;;;;;;7.59;100.00;100324.19;5083163;28;20440;-71
2023/12/21 03:38:11;;;;;;;31.00;12.52;;;;;;;7.60;100.00;100314.53;5083938;28;20024;-69
2023/12/21 03:40:37;;;;;;;31.38;12.23;;;;;;;7.61;100.00;100314.53;5082020;28;20522;-69
2023/12/21 03:43:02;;;;;;;31.15;12.57;;;;;;;7.61;100.00;100301.41;5085003;28;20458;-68
2023/12/21 03:45:29;;;;;;;31.40;12.25;;;;;;;7.58;100.00;100297.88;5081462;28;20035;-68
2023/12/21 03:47:54;;;;;;;30.83;11.93;;;;;;;7.61;100.00;100300.53;5084110;28;20032;-69
2023/12/21 03:50:19;;;;;;;31.92;12.13;;;;;;;7.60;100.00;100294.41;5082835;28;20036;-68
2023/12/21 03:52:45;;;;;;;29.65;12.20;;;;;;;7.61;100.00;100285.59;5064972;28;20040;-77
2023/12/21 03:55:10;;;;;;;33.50;13.75;;;;;;;7.59;100.00;100287.34;5083694;28;20031;-77
2023/12/21 03:57:36;;;;;;;31.17;12.85;;;;;;;7.60;100.00;100283.88;5081945;28;20063;-75
2023/12/21 04:00:02;;;;;;;32.55;13.38;;;;;;;7.63;100.00;100278.63;5084991;28;20368;-77
2023/12/21 04:02:27;;;;;;;32.15;13.45;;;;;;;7.60;100.00;100273.34;5081511;28;20036;-76
2023/12/21 04:04:53;;;;;;;33.78;13.50;;;;;;;7.63;100.00;100276.00;5084180;28;20036;-76
2023/12/21 04:07:18;;;;;;;32.25;13.88;;;;;;;7.62;100.00;100276.84;5062294;28;20505;-77
2023/12/21 04:09:43;;;;;;;33.58;15.00;;;;;;;7.63;100.00;100265.47;5083328;28;20036;-75
2023/12/21 04:12:09;;;;;;;34.72;15.18;;;;;;;7.63;100.00;100269.84;5082029;28;20047;-77
2023/12/21 04:14:34;;;;;;;34.17;15.60;;;;;;;7.64;100.00;100269.84;5084551;28;20039;-76
2023/12/21 04:16:59;;;;;;;33.53;15.57;;;;;;;7.65;100.00;100252.34;5081430;28;20107;-73
2023/12/21 04:19:25;;;;;;;34.25;16.10;;;;;;;7.69;100.00;100227.81;5084165;28;20028;-76
2023/12/21 04:21:50;;;;;;;34.65;16.20;;;;;;;7.71;100.00;100252.38;5082154;28;20028;-75
2023/12/21 04:24:16;;;;;;;36.38;15.32;;;;;;;7.74;100.00;100235.72;5064825;28;20032;-72
2023/12/21 04:26:41;;;;;;;32.33;15.13;;;;;;;7.70;100.00;100228.69;5083517;28;20024;-71
2023/12/21 04:29:07;;;;;;;32.30;15.35;;;;;;;7.75;100.00;100219.94;5081055;28;20040;-70
2023/12/21 04:31:32;;;;;;;33.78;15.95;;;;;;;7.77;100.00;100233.09;5066691;28;20192;-71
2023/12/21 04:33:58;;;;;;;33.05;15.65;;;;;;;7.79;100.00;100221.72;5081013;28;20034;-69
2023/12/21 04:36:23;;;;;;;31.98;16.02;;;;;;;7.81;100.00;100201.56;5083281;28;20027;-69
2023/12/21 04:38:48;;;;;;;32.53;15.88;;;;;;;7.82;100.00;100190.16;5082582;28;20085;-71
2023/12/21 04:41:14;;;;;;;33.00;15.00;;;;;;;7.85;100.00;100168.25;5081935;28;20025;-70
2023/12/21 04:43:39;;;;;;;33.92;15.98;;;;;;;7.87;100.00;100177.03;5083324;28;20028;-70
2023/12/21 04:46:05;;;;;;;32.45;14.77;;;;;;;7.90;100.00;100177.03;5062767;28;20028;-70
2023/12/21 04:48:30;;;;;;;31.63;14.52;;;;;;;7.91;100.00;100194.59;5084012;28;20064;-70
2023/12/21 04:50:56;;;;;;;30.42;14.68;;;;;;;7.91;100.00;100184.06;5081001;28;20112;-70
2023/12/21 04:53:21;;;;;;;31.33;14.20;;;;;;;7.97;100.00;100164.78;5085123;28;20028;-69
2023/12/21 04:55:48;;;;;;;30.90;14.48;;;;;;;7.98;100.00;100149.00;5086222;28;20085;-69
2023/12/21 04:58:13;;;;;;;32.75;14.30;;;;;;;7.99;100.00;100148.16;5085849;28;20391;-68
2023/12/21 05:00:40;;;;;;;29.25;13.27;;;;;;;7.98;100.00;100142.84;5087607;28;20028;-69
2023/12/21 05:03:05;;;;;;;30.63;13.68;;;;;;;8.02;100.00;100126.19;5084491;28;20028;-69
2023/12/21 05:05:31;;;;;;;27.25;12.57;;;;;;;8.08;100.00;100127.97;5088064;28;20024;-68
2023/12/21 05:07:56;;;;;;;28.85;12.95;;;;;;;8.08;100.00;100117.44;5084572;28;20459;-69
2023/12/21 05:10:22;;;;;;;29.15;12.63;;;;;;;8.14;100.00;100112.19;5086586;28;20047;-69
2023/12/21 05:12:49;;;;;;;28.88;12.73;;;;;;;8.13;100.00;100113.94;5086076;28;20107;-70
2023/12/21 05:15:14;;;;;;;26.30;11.93;;;;;;;8.14;100.00;100118.34;5085502;28;20032;-70
2023/12/21 05:17:40;;;;;;;27.75;11.45;;;;;;;8.20;100.00;100114.84;5086837;28;20028;-69
2023/12/21 05:20:05;;;;;;;25.95;10.55;;;;;;;8.29;100.00;100120.13;5066327;28;20016;-70
2023/12/21 05:22:31;;;;;;;26.25;9.88;;;;;;;8.32;100.00;100130.66;5087566;28;20471;-69
2023/12/21 05:24:56;;;;;;;25.70;10.02;;;;;;;8.31;100.00;100126.28;5084386;28;20024;-69
2023/12/21 05:27:22;;;;;;;25.73;9.43;;;;;;;8.37;100.00;100121.03;5086499;28;20032;-69
2023/12/21 05:29:47;;;;;;;26.55;9.48;;;;;;;8.35;100.00;100101.69;5085705;28;20023;-69
2023/12/21 05:32:12;;;;;;;24.42;9.00;;;;;;;8.37;100.00;100078.00;5084774;28;20093;-70
2023/12/21 05:34:37;;;;;;;24.88;9.00;;;;;;;8.33;100.00;100085.03;5087113;28;20052;-71
2023/12/21 05:37:03;;;;;;;22.52;7.78;;;;;;;8.39;100.00;100084.16;5083710;28;20036;-70
2023/12/21 05:39:29;;;;;;;24.10;8.30;;;;;;;8.35;100.00;100091.16;5087218;28;20028;-76
2023/12/21 05:41:54;;;;;;;23.70;7.80;;;;;;;8.40;100.00;100077.13;5084770;28;20403;-76
2023/12/21 05:44:20;;;;;;;24.10;7.32;;;;;;;8.45;100.00;100078.94;5086077;28;20077;-76
2023/12/21 05:46:45;;;;;;;23.85;7.28;;;;;;;8.49;100.00;100071.91;5086027;28;20039;-77
2023/12/21 05:49:11;;;;;;;23.27;7.68;;;;;;;8.52;100.00;100098.25;5084475;28;20021;-76
2023/12/21 05:51:36;;;;;;;21.77;6.25;;;;;;;8.59;100.00;100064.88;5065441;28;20032;-76
2023/12/21 05:54:02;;;;;;;21.80;6.70;;;;;;;8.59;100.00;100071.03;5087192;28;20039;-77
2023/12/21 05:56:28;;;;;;;21.55;6.70;;;;;;;8.60;100.00;100071.91;5083828;28;20029;-76
2023/12/21 05:58:53;;;;;;;21.85;6.82;;;;;;;8.57;100.00;100064.88;5086293;28;20071;-74
2023/12/21 06:01:19;;;;;;;22.20;6.55;;;;;;;8.58;100.00;100077.19;5085232;28;20570;-73
2023/12/21 06:03:44;;;;;;;22.98;7.05;;;;;;;8.57;100.00;100096.50;5083584;28;20082;-76
2023/12/21 06:06:09;;;;;;;20.65;7.35;;;;;;;8.53;100.00;100084.19;5085653;28;20111;-74
2023/12/21 06:08:35;;;;;;;22.40;7.68;;;;;;;8.35;100.00;100079.75;5083177;28;20051;-74
2023/12/21 06:11:00;;;;;;;22.85;7.85;;;;;;;8.26;100.00;100090.28;5083176;28;20025;-73
2023/12/21 06:13:28;;;;;;;24.15;9.07;;;;;;;8.23;100.00;100070.09;5085801;28;20070;-74
2023/12/21 06:15:53;;;;;;;23.50;8.98;;;;;;;8.18;100.00;100074.47;5058078;28;20060;-75
2023/12/21 06:18:19;;;;;;;24.77;10.13;;;;;;;8.14;100.00;100076.22;5085114;28;20067;-76
2023/12/21 06:20:44;;;;;;;24.85;9.75;;;;;;;8.15;100.00;100066.56;5085431;28;20024;-76
2023/12/21 06:23:09;;;;;;;26.08;11.35;;;;;;;8.08;100.00;100047.25;5065834;28;20033;-75
2023/12/21 06:25:35;;;;;;;27.25;12.00;;;;;;;8.06;100.00;100022.66;5086410;28;20038;-73
2023/12/21 06:28:00;;;;;;;28.10;12.45;;;;;;;8.06;100.00;100025.31;5083049;28;20033;-72
2023/12/21 06:30:25;;;;;;;28.10;12.52;;;;;;;8.08;100.00;100041.09;5085567;28;20044;-71
2023/12/21 06:32:51;;;;;;;28.73;13.00;;;;;;;8.07;100.00;100039.34;5083919;28;20135;-74
2023/12/21 06:35:17;;;;;;;29.33;13.57;;;;;;;8.07;100.00;100049.88;5084318;28;20446;-72
2023/12/21 06:37:42;;;;;;;25.02;11.68;;;;;;;8.06;100.00;100056.03;5067244;28;20531;-71
2023/12/21 06:40:09;;;;;;;27.08;12.73;;;;;;;8.07;100.00;100041.97;5082863;28;20107;-73
2023/12/21 06:42:34;;;;;;;28.45;12.25;;;;;;;8.06;100.00;100034.97;5068329;28;20035;-71
2023/12/21 06:45:00;;;;;;;27.42;12.20;;;;;;;8.05;100.00;100039.34;5082587;28;20029;-75
2023/12/21 06:47:25;;;;;;;27.58;12.00;;;;;;;8.07;100.00;100044.59;5085152;28;20039;-76
2023/12/21 06:49:50;;;;;;;27.17;11.70;;;;;;;8.08;100.00;100034.09;5084009;28;20368;-74
2023/12/21 06:52:16;;;;;;;26.50;10.98;;;;;;;8.11;100.00;100018.31;5083647;28;20070;-77
2023/12/21 06:54:41;;;;;;;26.55;10.13;;;;;;;8.13;100.00;100018.31;5084889;28;20497;-76
2023/12/21 06:57:07;;;;;;;23.42;9.38;;;;;;;8.12;100.00;100001.63;5082458;28;20473;-75
2023/12/21 06:59:32;;;;;;;24.65;9.30;;;;;;;8.11;100.00;99996.34;5085693;28;20542;-69
2023/12/21 07:01:57;;;;;;;24.45;9.57;;;;;;;8.13;100.00;99997.25;5082749;28;20417;-70
2023/12/21 07:04:23;;;;;;;25.52;9.15;;;;;;;8.14;100.00;99985.81;5084455;28;20528;-69
2023/12/21 07:06:48;;;;;;;23.38;8.15;;;;;;;8.15;100.00;99982.31;5083507;28;20491;-69
2023/12/21 07:09:17;;;;;;;25.80;8.70;;;;;;;8.14;100.00;99963.03;5083304;28;20056;-70
2023/12/21 07:11:43;;;;;;;24.02;8.10;;;;;;;8.16;100.00;99969.16;5084416;28;20034;-69
2023/12/21 07:14:08;;;;;;;24.15;8.15;;;;;;;8.15;100.00;99956.00;5082169;28;20383;-70
2023/12/21 07:16:33;;;;;;;24.75;8.48;;;;;;;8.16;100.00;99965.66;5085281;28;20101;-70
2023/12/21 07:19:00;;;;;;;24.88;8.80;;;;;;;8.13;100.00;99953.34;5064091;28;20028;-69
2023/12/21 07:21:26;;;;;;;23.05;8.50;;;;;;;8.16;100.00;99970.91;5084528;28;20622;-69
2023/12/21 07:23:51;;;;;;;24.98;8.07;;;;;;;8.15;100.00;99961.25;5083229;28;20028;-69
2023/12/21 07:26:17;;;;;;;23.88;8.18;;;;;;;8.14;100.00;99948.97;5083086;28;20031;-70
2023/12/21 07:28:42;;;;;;;22.33;8.07;;;;;;;8.24;100.00;99957.75;5084211;28;20042;-70
2023/12/21 07:31:09;;;;;;;25.23;8.52;;;;;;;8.23;100.00;99927.91;5082254;28;20106;-70
2023/12/21 07:33:35;;;;;;;22.75;7.95;;;;;;;8.24;100.00;99932.28;5084872;28;20360;-70
2023/12/21 07:36:01;;;;;;;24.60;7.95;;;;;;;8.26;100.00;99919.16;5081545;28;20108;-70
2023/12/21 07:38:26;;;;;;;22.02;6.75;;;;;;;8.29;100.00;99896.31;5084321;28;20082;-70
2023/12/21 07:40:52;;;;;;;21.70;6.60;;;;;;;8.31;100.00;99889.25;5082699;28;20028;-69
2023/12/21 07:43:17;;;;;;;21.42;6.43;;;;;;;8.33;100.00;99890.16;5083053;28;20025;-69
2023/12/21 07:45:42;;;;;;;21.52;6.57;;;;;;;8.38;100.00;99882.25;5084413;28;20032;-69
2023/12/21 07:48:08;;;;;;;21.35;7.03;;;;;;;8.39;100.00;99899.81;5081441;28;20028;-68
2023/12/21 07:50:33;;;;;;;22.52;7.88;;;;;;;8.40;100.00;99888.38;5067060;28;20375;-68
2023/12/21 07:52:59;;;;;;;23.10;8.05;;;;;;;8.41;100.00;99886.63;5081713;28;20033;-68
2023/12/21 07:55:24;;;;;;;21.05;7.32;;;;;;;8.38;100.00;99845.38;5083616;28;20467;-68
2023/12/21 07:57:49;;;;;;;21.92;7.72;;;;;;;8.40;100.00;99887.50;5082884;28;20407;-68
2023/12/21 08:00:15;;;;;;;21.65;7.85;;;;;;;8.37;100.00;99884.00;5053783;28;20062;-69
2023/12/21 08:02:44;;;;;;;21.92;8.27;;;;;;;8.35;100.00;99891.03;5084042;28;20020;-68
2023/12/21 08:05:12;;;;;;;22.83;8.35;;;;;;;8.38;100.00;99896.28;5081723;28;20045;-69
2023/12/21 08:07:38;;;;;;;22.63;8.55;;;;;;;8.33;100.00;99877.00;5084203;28;20044;-71
2023/12/21 08:10:04;;;;;;;20.92;8.10;;;;;;;8.33;100.00;99866.47;5081010;28;20135;-76
2023/12/21 08:12:29;;;;;;;22.20;8.20;;;;;;;8.32;100.00;99874.38;5084442;28;20052;-77
2023/12/21 08:14:54;;;;;;;23.15;9.10;;;;;;;8.31;100.00;99876.09;5081895;28;20056;-74
2023/12/21 08:17:20;;;;;;;22.23;7.97;;;;;;;8.30;100.00;99861.19;5082787;28;20052;-76
2023/12/21 08:19:45;;;;;;;21.75;8.45;;;;;;;8.32;100.00;99874.38;5065568;28;20059;-76
2023/12/21 08:22:10;;;;;;;22.15;7.82;;;;;;;8.32;100.00;99869.97;5081409;28;20021;-76
2023/12/21 08:24:36;;;;;;;22.45;7.95;;;;;;;8.36;100.00;99855.91;5084234;28;20055;-75
2023/12/21 08:27:01;;;;;;;22.17;8.18;;;;;;;8.34;100.00;99844.53;5062278;28;20063;-75
2023/12/21 08:29:27;;;;;;;20.73;7.50;;;;;;;8.38;100.00;99854.13;5083519;28;20050;-74
2023/12/21 08:31:53;;;;;;;21.67;7.97;;;;;;;8.36;100.00;99845.38;5081912;28;20032;-72
2023/12/21 08:34:18;;;;;;;21.45;7.85;;;;;;;8.38;100.00;99859.41;5082408;28;20024;-73
2023/12/21 08:36:43;;;;;;;20.90;7.53;;;;;;;8.39;100.00;99857.66;5083349;28;20062;-72
2023/12/21 08:39:09;;;;;;;20.58;7.55;;;;;;;8.41;100.00;99837.47;5081437;28;20047;-71
2023/12/21 08:41:34;;;;;;;21.85;7.90;;;;;;;8.38;100.00;99837.47;5084476;28;20489;-76
2023/12/21 08:44:00;;;;;;;20.98;7.80;;;;;;;8.40;100.00;99842.72;5062900;28;20021;-74
2023/12/21 08:46:25;;;;;;;21.38;8.20;;;;;;;8.38;100.00;99834.84;5083437;28;20025;-71
2023/12/21 08:48:50;;;;;;;20.63;7.60;;;;;;;8.41;100.00;99842.72;5082306;28;20383;-71
2023/12/21 08:51:16;;;;;;;20.90;7.57;;;;;;;8.41;100.00;99832.19;5081695;28;20089;-75
2023/12/21 08:53:44;;;;;;;22.23;8.07;;;;;;;8.41;100.00;99832.19;5083596;28;20024;-75
2023/12/21 08:56:09;;;;;;;21.30;8.27;;;;;;;8.46;100.00;99829.56;5080832;28;20032;-75
2023/12/21 08:58:36;;;;;;;21.52;8.73;;;;;;;8.45;100.00;99828.72;5083883;28;20374;-76
2023/12/21 09:01:01;;;;;;;22.15;8.60;;;;;;;8.48;100.00;99812.88;5080853;28;20039;-75
2023/12/21 09:03:27;;;;;;;22.17;8.73;;;;;;;8.47;100.00;99826.94;5083376;28;20032;-76
2023/12/21 09:05:52;;;;;;;23.48;8.48;;;;;;;8.51;100.00;99796.22;5081868;28;20386;-75
2023/12/21 09:08:18;;;;;;;22.40;8.32;;;;;;;8.54;100.00;99798.81;5081942;28;20049;-74
2023/12/21 09:10:43;;;;;;;21.42;7.43;;;;;;;8.62;100.00;99798.78;5082986;28;20411;-75
2023/12/21 09:13:09;;;;;;;20.02;7.30;;;;;;;8.68;100.00;99819.84;5080510;28;20064;-75
2023/12/21 09:15:36;;;;;;;20.00;7.30;;;;;;;8.69;100.00;99814.59;5083984;28;20031;-75
2023/12/21 09:18:05;;;;;;;20.30;6.60;;;;;;;8.67;100.00;99791.75;5077647;28;20036;-75
2023/12/21 09:20:31;;;;;;;20.27;6.40;;;;;;;8.69;100.00;99800.50;5083767;28;20035;-73
2023/12/21 09:22:56;;;;;;;20.50;6.75;;;;;;;8.75;100.00;99799.59;5063155;28;20387;-73
2023/12/21 09:25:21;;;;;;;21.10;6.50;;;;;;;8.72;100.00;99782.94;5082473;28;20032;-70
2023/12/21 09:27:47;;;;;;;21.77;6.40;;;;;;;8.72;100.00;99795.22;5082328;28;20360;-71
2023/12/21 09:30:13;;;;;;;21.98;6.78;;;;;;;8.70;100.00;99766.25;5081081;28;20036;-72
2023/12/21 09:32:40;;;;;;;20.60;5.72;;;;;;;8.67;100.00;99779.44;5065573;28;20570;-74
2023/12/21 09:35:06;;;;;;;19.23;5.68;;;;;;;8.68;100.00;99770.66;5062245;28;20027;-75
2023/12/21 09:37:32;;;;;;;20.88;5.68;;;;;;;8.70;100.00;99766.25;5083957;28;20028;-76
2023/12/21 09:39:58;;;;;;;17.92;4.93;;;;;;;8.70;100.00;99782.06;5083672;28;20107;-72
2023/12/21 09:42:26;;;;;;;17.05;4.72;;;;;;;8.77;100.00;99774.16;5086265;28;20048;-74
2023/12/21 09:44:53;;;;;;;21.02;4.70;;;;;;;8.80;100.00;99798.72;5085323;28;20551;-75
2023/12/21 09:47:20;;;;;;;18.40;4.32;;;;;;;8.87;100.00;99776.72;5085370;28;20383;-75
2023/12/21 09:49:47;;;;;;;19.38;4.10;;;;;;;8.84;100.00;99779.38;5086004;28;20028;-75
2023/12/21 09:52:15;;;;;;;17.05;3.70;;;;;;;8.91;100.00;99753.81;5084181;28;20101;-74
2023/12/21 09:54:42;;;;;;;19.50;3.92;;;;;;;8.95;100.00;99739.75;5086476;28;20036;-72
2023/12/21 09:57:09;;;;;;;15.45;3.50;;;;;;;8.98;100.00;99768.72;5083494;28;20030;-71
2023/12/21 09:59:34;;;;;;;18.45;3.90;;;;;;;9.03;100.00;99748.50;5083632;28;20123;-73
2023/12/21 10:02:01;;;;;;;19.80;3.47;;;;;;;9.22;100.00;99740.47;5086365;28;20103;-76
2023/12/21 10:04:26;;;;;;;17.27;3.65;;;;;;;9.21;100.00;99747.47;5084096;28;20020;-74
2023/12/21 10:06:52;;;;;;;18.23;3.70;;;;;;;9.25;100.00;99730.75;5085160;28;20102;-76
2023/12/21 10:09:18;;;;;;;16.02;3.03;;;;;;;9.29;100.00;99736.88;5085577;28;20385;-75
2023/12/21 10:11:46;;;;;;;18.13;3.50;;;;;;;9.27;100.00;99743.91;5083995;28;20029;-76
2023/12/21 10:14:21;;;;;;;19.67;3.70;;;;;;;9.35;100.00;99742.09;5068337;28;20086;-73
2023/12/21 10:16:46;;;;;;;16.48;3.00;;;;;;;9.46;100.00;99735.88;5084347;28;20028;-75
2023/12/21 10:19:12;;;;;;;15.60;3.25;;;;;;;9.41;100.00;99734.13;5086018;28;20356;-72
2023/12/21 10:21:41;;;;;;;18.05;3.13;;;;;;;9.52;100.00;99738.44;5065019;28;20357;-71
2023/12/21 10:24:07;;;;;;;20.45;3.40;;;;;;;9.46;100.00;99728.81;5082967;28;20029;-74
2023/12/21 10:26:44;;;;;;;18.92;3.30;;;;;;;9.50;100.00;99742.88;5086329;28;20116;-69
2023/12/21 10:29:14;;;;;;;17.58;2.95;;;;;;;9.58;100.00;99722.53;5083161;28;20021;-70
2023/12/21 10:31:44;;;;;;;18.33;3.10;;;;;;;9.55;100.00;99775.34;5086231;28;20028;-71
2023/12/21 10:34:09;;;;;;;14.57;2.80;;;;;;;9.55;100.00;99738.41;5082785;28;20390;-70
2023/12/21 10:36:38;;;;;;;17.85;3.03;;;;;;;9.52;100.00;99733.16;5086168;28;20108;-69
2023/12/21 10:39:04;;;;;;;14.48;2.55;;;;;;;9.54;100.00;99723.50;5082764;28;20557;-69
2023/12/21 10:41:29;;;;;;;12.65;2.50;;;;;;;9.53;100.00;99729.66;5085528;28;20111;-69
2023/12/21 10:43:55;;;;;;;14.65;2.60;;;;;;;9.55;100.00;99726.13;5065626;28;20428;-71
2023/12/21 10:46:20;;;;;;;16.65;2.88;;;;;;;9.64;100.00;99738.34;5084460;28;20024;-69
2023/12/21 10:48:47;;;;;;;15.02;2.60;;;;;;;9.70;100.00;99756.75;5067268;28;20033;-69
2023/12/21 10:51:15;;;;;;;12.73;2.53;;;;;;;9.68;100.00;99741.81;5082207;28;20029;-69
2023/12/21 10:53:42;;;;;;;17.48;2.80;;;;;;;9.59;100.00;99717.25;5067693;28;20398;-69
2023/12/21 10:56:08;;;;;;;15.50;2.95;;;;;;;9.51;100.00;99724.38;5082331;28;20052;-69
2023/12/21 10:58:34;;;;;;;15.75;2.80;;;;;;;9.49;100.00;99741.13;5082456;28;20059;-69
2023/12/21 11:01:02;;;;;;;17.85;3.22;;;;;;;9.45;100.00;99711.25;5085403;28;20064;-69
2023/12/21 11:03:28;;;;;;;15.70;2.80;;;;;;;9.50;100.00;99698.03;5083006;28;20467;-69
2023/12/21 11:05:55;;;;;;;13.77;2.80;;;;;;;9.55;100.00;99725.22;5084135;28;20364;-68
2023/12/21 11:08:22;;;;;;;15.07;2.78;;;;;;;9.58;100.00;99720.81;5065748;28;20098;-71
2023/12/21 11:10:48;;;;;;;19.08;3.13;;;;;;;9.65;100.00;99715.47;5083343;28;20028;-70